sensor_id;sensor_type;location;lat;lon;timestamp;temperature;humidity
19493;DHT22;9887;54.366;10.958;2023-07-31T00:02:05;14.40;99.90
19493;DHT22;9887;54.366;10.958;2023-07-31T00:04:32;14.40;99.90
19493;DHT22;9887;54.366;10.958;2023-07-31T00:07:02;14.40;99.90
19493;DHT22;9887;54.366;10.958;2023-07-31T00:09:31;14.50;99.90
19493;DHT22;9887;54.366;10.958;2023-07-31T00:11:58;14.50;99.90
19493;DHT22;9887;54.366;10.958;2023-07-31T00:14:26;14.50;99.90
19493;DHT22;9887;54.366;10.958;2023-07-31T00:16:54;14.40;99.90
19493;DHT22;9887;54.366;10.958;2023-07-31T00:19:22;14.30;99.90
19493;DHT22;9887;54.366;10.958;2023-07-31T00:21:50;14.30;99.90
19493;DHT22;9887;54.366;10.958;2023-07-31T00:24:19;14.30;99.90
19493;DHT22;9887;54.366;10.958;2023-07-31T00:26:47;14.30;99.90
19493;DHT22;9887;54.366;10.958;2023-07-31T00:29:15;14.40;99.90
19493;DHT22;9887;54.366;10.958;2023-07-31T00:31:43;14.40;99.90
19493;DHT22;9887;54.366;10.958;2023-07-31T00:34:11;14.30;99.90
19493;DHT22;9887;54.366;10.958;2023-07-31T00:36:38;14.30;99.90
19493;DHT22;9887;54.366;10.958;2023-07-31T00:39:07;14.30;99.90
19493;DHT22;9887;54.366;10.958;2023-07-31T00:41:36;14.40;99.90
19493;DHT22;9887;54.366;10.958;2023-07-31T00:44:04;14.50;99.90
19493;DHT22;9887;54.366;10.958;2023-07-31T00:46:33;14.60;99.90
19493;DHT22;9887;54.366;10.958;2023-07-31T00:49:02;14.70;99.90
19493;DHT22;9887;54.366;10.958;2023-07-31T00:51:30;14.70;99.90
19493;DHT22;9887;54.366;10.958;2023-07-31T00:53:58;14.80;99.90
19493;DHT22;9887;54.366;10.958;2023-07-31T00:56:27;14.70;99.90
19493;DHT22;9887;54.366;10.958;2023-07-31T00:58:57;14.50;99.90
19493;DHT22;9887;54.366;10.958;2023-07-31T01:01:25;14.50;99.90
19493;DHT22;9887;54.366;10.958;2023-07-31T01:03:53;14.60;99.90
19493;DHT22;9887;54.366;10.958;2023-07-31T01:06:28;14.60;99.90
19493;DHT22;9887;54.366;10.958;2023-07-31T01:09:02;14.50;99.90
19493;DHT22;9887;54.366;10.958;2023-07-31T01:11:34;14.50;99.90
19493;DHT22;9887;54.366;10.958;2023-07-31T01:14:05;14.40;99.90
19493;DHT22;9887;54.366;10.958;2023-07-31T01:16:33;14.40;99.90
19493;DHT22;9887;54.366;10.958;2023-07-31T01:19:01;14.30;99.90
19493;DHT22;9887;54.366;10.958;2023-07-31T01:21:41;14.30;99.90
19493;DHT22;9887;54.366;10.958;2023-07-31T01:24:21;14.30;99.90
19493;DHT22;9887;54.366;10.958;2023-07-31T01:26:56;14.30;99.90
19493;DHT22;9887;54.366;10.958;2023-07-31T01:29:32;14.30;99.90
19493;DHT22;9887;54.366;10.958;2023-07-31T01:32:03;14.40;99.90
19493;DHT22;9887;54.366;10.958;2023-07-31T01:34:32;14.50;99.90
19493;DHT22;9887;54.366;10.958;2023-07-31T01:37:01;14.50;99.90
19493;DHT22;9887;54.366;10.958;2023-07-31T01:39:29;14.40;99.90
19493;DHT22;9887;54.366;10.958;2023-07-31T01:41:58;14.40;99.90
19493;DHT22;9887;54.366;10.958;2023-07-31T01:44:27;14.30;99.90
19493;DHT22;9887;54.366;10.958;2023-07-31T01:46:55;14.40;99.90
19493;DHT22;9887;54.366;10.958;2023-07-31T01:49:23;14.40;99.90
19493;DHT22;9887;54.366;10.958;2023-07-31T01:51:51;14.40;99.90
19493;DHT22;9887;54.366;10.958;2023-07-31T01:54:18;14.40;99.90
19493;DHT22;9887;54.366;10.958;2023-07-31T01:56:46;14.50;99.90
19493;DHT22;9887;54.366;10.958;2023-07-31T01:59:15;14.40;99.90
19493;DHT22;9887;54.366;10.958;2023-07-31T02:01:43;14.40;99.90
19493;DHT22;9887;54.366;10.958;2023-07-31T02:04:11;14.40;99.90
19493;DHT22;9887;54.366;10.958;2023-07-31T02:06:39;14.40;99.90
19493;DHT22;9887;54.366;10.958;2023-07-31T02:09:08;14.30;99.90
19493;DHT22;9887;54.366;10.958;2023-07-31T02:11:36;14.20;99.90
19493;DHT22;9887;54.366;10.958;2023-07-31T02:14:04;14.20;99.90
19493;DHT22;9887;54.366;10.958;2023-07-31T02:16:33;14.20;99.90
19493;DHT22;9887;54.366;10.958;2023-07-31T02:19:01;14.20;99.90
19493;DHT22;9887;54.366;10.958;2023-07-31T02:21:29;14.20;99.90
19493;DHT22;9887;54.366;10.958;2023-07-31T02:23:56;14.10;99.90
19493;DHT22;9887;54.366;10.958;2023-07-31T02:26:24;14.10;99.90
19493;DHT22;9887;54.366;10.958;2023-07-31T02:28:52;14.10;99.90
19493;DHT22;9887;54.366;10.958;2023-07-31T02:31:20;14.10;99.90
19493;DHT22;9887;54.366;10.958;2023-07-31T02:33:50;14.10;99.90
19493;DHT22;9887;54.366;10.958;2023-07-31T02:36:18;14.10;99.90
19493;DHT22;9887;54.366;10.958;2023-07-31T02:38:46;14.00;99.90
19493;DHT22;9887;54.366;10.958;2023-07-31T02:41:14;14.00;99.90
19493;DHT22;9887;54.366;10.958;2023-07-31T02:43:41;14.10;99.90
19493;DHT22;9887;54.366;10.958;2023-07-31T02:46:09;14.10;99.90
19493;DHT22;9887;54.366;10.958;2023-07-31T02:48:37;14.20;99.90
19493;DHT22;9887;54.366;10.958;2023-07-31T02:51:06;14.20;99.90
19493;DHT22;9887;54.366;10.958;2023-07-31T02:53:34;14.20;99.90
19493;DHT22;9887;54.366;10.958;2023-07-31T02:56:02;14.20;99.90
19493;DHT22;9887;54.366;10.958;2023-07-31T02:58:30;14.20;99.90
19493;DHT22;9887;54.366;10.958;2023-07-31T03:00:58;14.20;99.90
19493;DHT22;9887;54.366;10.958;2023-07-31T03:03:26;14.20;99.90
19493;DHT22;9887;54.366;10.958;2023-07-31T03:05:54;14.20;99.90
19493;DHT22;9887;54.366;10.958;2023-07-31T03:08:25;14.20;99.90
19493;DHT22;9887;54.366;10.958;2023-07-31T03:10:53;14.10;99.90
19493;DHT22;9887;54.366;10.958;2023-07-31T03:13:21;14.10;99.90
19493;DHT22;9887;54.366;10.958;2023-07-31T03:15:50;14.00;99.90
19493;DHT22;9887;54.366;10.958;2023-07-31T03:18:18;14.00;99.90
19493;DHT22;9887;54.366;10.958;2023-07-31T03:20:46;13.90;99.90
19493;DHT22;9887;54.366;10.958;2023-07-31T03:23:13;13.90;99.90
19493;DHT22;9887;54.366;10.958;2023-07-31T03:25:55;13.90;99.90
19493;DHT22;9887;54.366;10.958;2023-07-31T03:28:27;14.00;99.90
19493;DHT22;9887;54.366;10.958;2023-07-31T03:30:55;14.00;99.90
19493;DHT22;9887;54.366;10.958;2023-07-31T03:33:23;14.10;99.90
19493;DHT22;9887;54.366;10.958;2023-07-31T03:35:51;14.00;99.90
19493;DHT22;9887;54.366;10.958;2023-07-31T03:38:19;14.00;99.90
19493;DHT22;9887;54.366;10.958;2023-07-31T03:40:48;13.90;99.90
19493;DHT22;9887;54.366;10.958;2023-07-31T03:43:16;13.90;99.90
19493;DHT22;9887;54.366;10.958;2023-07-31T03:45:44;13.90;99.90
19493;DHT22;9887;54.366;10.958;2023-07-31T03:48:14;13.90;99.90
19493;DHT22;9887;54.366;10.958;2023-07-31T03:50:42;13.90;99.90
19493;DHT22;9887;54.366;10.958;2023-07-31T03:53:10;13.80;99.90
19493;DHT22;9887;54.366;10.958;2023-07-31T03:55:37;13.80;99.90
19493;DHT22;9887;54.366;10.958;2023-07-31T03:58:07;13.90;99.90
19493;DHT22;9887;54.366;10.958;2023-07-31T04:00:34;13.90;99.90
19493;DHT22;9887;54.366;10.958;2023-07-31T04:03:02;13.90;99.90
19493;DHT22;9887;54.366;10.958;2023-07-31T04:05:32;13.90;99.90
19493;DHT22;9887;54.366;10.958;2023-07-31T04:08:00;14.00;99.90
19493;DHT22;9887;54.366;10.958;2023-07-31T04:10:28;14.10;99.90
19493;DHT22;9887;54.366;10.958;2023-07-31T04:12:56;14.10;99.90
19493;DHT22;9887;54.366;10.958;2023-07-31T04:15:25;14.20;99.90
19493;DHT22;9887;54.366;10.958;2023-07-31T04:17:53;14.30;99.90
19493;DHT22;9887;54.366;10.958;2023-07-31T04:20:21;14.40;99.90
19493;DHT22;9887;54.366;10.958;2023-07-31T04:22:49;14.50;99.90
19493;DHT22;9887;54.366;10.958;2023-07-31T04:25:17;14.50;99.90
19493;DHT22;9887;54.366;10.958;2023-07-31T04:27:45;14.60;99.90
19493;DHT22;9887;54.366;10.958;2023-07-31T04:30:13;14.60;99.90
19493;DHT22;9887;54.366;10.958;2023-07-31T04:32:42;14.70;99.90
19493;DHT22;9887;54.366;10.958;2023-07-31T04:35:10;14.70;99.90
19493;DHT22;9887;54.366;10.958;2023-07-31T04:37:38;14.80;99.90
19493;DHT22;9887;54.366;10.958;2023-07-31T04:40:07;14.80;99.90
19493;DHT22;9887;54.366;10.958;2023-07-31T04:42:35;14.80;99.90
19493;DHT22;9887;54.366;10.958;2023-07-31T04:45:03;14.80;99.90
19493;DHT22;9887;54.366;10.958;2023-07-31T04:47:31;14.80;99.90
19493;DHT22;9887;54.366;10.958;2023-07-31T04:50:01;14.80;99.90
19493;DHT22;9887;54.366;10.958;2023-07-31T04:52:29;14.80;99.90
19493;DHT22;9887;54.366;10.958;2023-07-31T04:54:56;14.90;99.90
19493;DHT22;9887;54.366;10.958;2023-07-31T04:57:24;14.90;99.90
19493;DHT22;9887;54.366;10.958;2023-07-31T04:59:52;14.90;99.90
19493;DHT22;9887;54.366;10.958;2023-07-31T05:02:20;14.90;99.90
19493;DHT22;9887;54.366;10.958;2023-07-31T05:04:48;14.90;99.90
19493;DHT22;9887;54.366;10.958;2023-07-31T05:07:18;14.90;99.90
19493;DHT22;9887;54.366;10.958;2023-07-31T05:09:46;14.90;99.90
19493;DHT22;9887;54.366;10.958;2023-07-31T05:12:14;14.90;99.90
19493;DHT22;9887;54.366;10.958;2023-07-31T05:14:42;14.90;99.90
19493;DHT22;9887;54.366;10.958;2023-07-31T05:17:09;15.00;99.90
19493;DHT22;9887;54.366;10.958;2023-07-31T05:19:37;15.00;99.90
19493;DHT22;9887;54.366;10.958;2023-07-31T05:22:05;15.10;99.90
19493;DHT22;9887;54.366;10.958;2023-07-31T05:24:34;15.00;99.90
19493;DHT22;9887;54.366;10.958;2023-07-31T05:27:03;15.10;99.90
19493;DHT22;9887;54.366;10.958;2023-07-31T05:29:31;15.10;99.90
19493;DHT22;9887;54.366;10.958;2023-07-31T05:31:58;15.10;99.90
19493;DHT22;9887;54.366;10.958;2023-07-31T05:34:26;15.20;99.90
19493;DHT22;9887;54.366;10.958;2023-07-31T05:36:54;15.20;99.90
19493;DHT22;9887;54.366;10.958;2023-07-31T05:39:22;15.20;99.90
19493;DHT22;9887;54.366;10.958;2023-07-31T05:41:52;15.30;99.90
19493;DHT22;9887;54.366;10.958;2023-07-31T05:44:19;15.30;99.90
19493;DHT22;9887;54.366;10.958;2023-07-31T05:46:47;15.30;99.90
19493;DHT22;9887;54.366;10.958;2023-07-31T05:49:15;15.40;99.90
19493;DHT22;9887;54.366;10.958;2023-07-31T05:51:43;15.40;99.90
19493;DHT22;9887;54.366;10.958;2023-07-31T05:54:11;15.50;99.90
19493;DHT22;9887;54.366;10.958;2023-07-31T05:56:39;15.40;99.90
19493;DHT22;9887;54.366;10.958;2023-07-31T05:59:11;15.50;99.90
19493;DHT22;9887;54.366;10.958;2023-07-31T06:01:39;15.50;99.90
19493;DHT22;9887;54.366;10.958;2023-07-31T06:04:08;15.60;99.90
19493;DHT22;9887;54.366;10.958;2023-07-31T06:06:36;15.60;99.90
19493;DHT22;9887;54.366;10.958;2023-07-31T06:09:04;15.70;99.90
19493;DHT22;9887;54.366;10.958;2023-07-31T06:11:32;15.70;99.90
19493;DHT22;9887;54.366;10.958;2023-07-31T06:14:00;15.80;99.90
19493;DHT22;9887;54.366;10.958;2023-07-31T06:16:29;15.80;99.90
19493;DHT22;9887;54.366;10.958;2023-07-31T06:18:57;15.90;99.90
19493;DHT22;9887;54.366;10.958;2023-07-31T06:21:25;15.80;99.90
19493;DHT22;9887;54.366;10.958;2023-07-31T06:23:52;15.90;99.90
19493;DHT22;9887;54.366;10.958;2023-07-31T06:26:20;15.90;99.90
19493;DHT22;9887;54.366;10.958;2023-07-31T06:28:48;16.00;99.90
19493;DHT22;9887;54.366;10.958;2023-07-31T06:31:16;16.00;99.90
19493;DHT22;9887;54.366;10.958;2023-07-31T06:33:48;16.00;99.90
19493;DHT22;9887;54.366;10.958;2023-07-31T06:36:16;16.10;99.90
19493;DHT22;9887;54.366;10.958;2023-07-31T06:38:44;16.10;99.90
19493;DHT22;9887;54.366;10.958;2023-07-31T06:41:12;16.10;99.90
19493;DHT22;9887;54.366;10.958;2023-07-31T06:43:40;16.20;99.90
19493;DHT22;9887;54.366;10.958;2023-07-31T06:46:08;16.20;99.90
19493;DHT22;9887;54.366;10.958;2023-07-31T06:48:37;16.20;99.90
19493;DHT22;9887;54.366;10.958;2023-07-31T06:51:07;16.20;99.90
19493;DHT22;9887;54.366;10.958;2023-07-31T06:53:35;16.30;99.90
19493;DHT22;9887;54.366;10.958;2023-07-31T06:56:03;16.30;99.90
19493;DHT22;9887;54.366;10.958;2023-07-31T06:58:31;16.20;99.90
19493;DHT22;9887;54.366;10.958;2023-07-31T07:00:59;16.20;99.90
19493;DHT22;9887;54.366;10.958;2023-07-31T07:03:27;16.10;99.90
19493;DHT22;9887;54.366;10.958;2023-07-31T07:05:55;16.10;99.90
19493;DHT22;9887;54.366;10.958;2023-07-31T07:08:24;16.10;99.90
19493;DHT22;9887;54.366;10.958;2023-07-31T07:10:53;16.10;99.90
19493;DHT22;9887;54.366;10.958;2023-07-31T07:13:21;16.10;99.90
19493;DHT22;9887;54.366;10.958;2023-07-31T07:15:49;16.20;99.90
19493;DHT22;9887;54.366;10.958;2023-07-31T07:18:17;16.20;99.90
19493;DHT22;9887;54.366;10.958;2023-07-31T07:20:50;16.20;99.90
19493;DHT22;9887;54.366;10.958;2023-07-31T07:23:18;16.30;99.90
19493;DHT22;9887;54.366;10.958;2023-07-31T07:25:48;16.30;99.90
19493;DHT22;9887;54.366;10.958;2023-07-31T07:28:16;16.30;99.90
19493;DHT22;9887;54.366;10.958;2023-07-31T07:30:44;16.40;99.90
19493;DHT22;9887;54.366;10.958;2023-07-31T07:33:12;16.40;99.90
19493;DHT22;9887;54.366;10.958;2023-07-31T07:35:40;16.40;99.90
19493;DHT22;9887;54.366;10.958;2023-07-31T07:38:08;16.40;99.90
19493;DHT22;9887;54.366;10.958;2023-07-31T07:40:38;16.50;99.90
19493;DHT22;9887;54.366;10.958;2023-07-31T07:43:07;16.50;99.90
19493;DHT22;9887;54.366;10.958;2023-07-31T07:45:35;16.60;99.90
19493;DHT22;9887;54.366;10.958;2023-07-31T07:48:04;16.60;99.90
19493;DHT22;9887;54.366;10.958;2023-07-31T07:50:32;16.60;99.90
19493;DHT22;9887;54.366;10.958;2023-07-31T07:52:59;16.60;99.90
19493;DHT22;9887;54.366;10.958;2023-07-31T07:55:27;16.60;99.90
19493;DHT22;9887;54.366;10.958;2023-07-31T07:57:55;16.60;99.90
19493;DHT22;9887;54.366;10.958;2023-07-31T08:00:24;16.70;99.90
19493;DHT22;9887;54.366;10.958;2023-07-31T08:02:53;16.80;99.90
19493;DHT22;9887;54.366;10.958;2023-07-31T08:05:21;16.80;99.90
19493;DHT22;9887;54.366;10.958;2023-07-31T08:07:48;16.80;99.90
19493;DHT22;9887;54.366;10.958;2023-07-31T08:10:16;16.90;99.90
19493;DHT22;9887;54.366;10.958;2023-07-31T08:12:44;16.90;99.90
19493;DHT22;9887;54.366;10.958;2023-07-31T08:15:12;17.00;99.90
19493;DHT22;9887;54.366;10.958;2023-07-31T08:17:41;17.10;99.90
19493;DHT22;9887;54.366;10.958;2023-07-31T08:20:10;17.00;99.90
19493;DHT22;9887;54.366;10.958;2023-07-31T08:22:38;17.00;99.90
19493;DHT22;9887;54.366;10.958;2023-07-31T08:25:07;17.00;99.90
19493;DHT22;9887;54.366;10.958;2023-07-31T08:27:35;17.00;99.90
19493;DHT22;9887;54.366;10.958;2023-07-31T08:30:04;17.10;99.90
19493;DHT22;9887;54.366;10.958;2023-07-31T08:32:32;17.10;99.90
19493;DHT22;9887;54.366;10.958;2023-07-31T08:35:01;17.10;99.90
19493;DHT22;9887;54.366;10.958;2023-07-31T08:37:29;17.10;99.90
19493;DHT22;9887;54.366;10.958;2023-07-31T08:39:57;17.20;99.90
19493;DHT22;9887;54.366;10.958;2023-07-31T08:42:24;17.20;99.90
19493;DHT22;9887;54.366;10.958;2023-07-31T08:44:55;17.20;99.90
19493;DHT22;9887;54.366;10.958;2023-07-31T08:47:24;17.30;99.90
19493;DHT22;9887;54.366;10.958;2023-07-31T08:49:52;17.40;99.90
19493;DHT22;9887;54.366;10.958;2023-07-31T08:52:23;17.40;99.90
19493;DHT22;9887;54.366;10.958;2023-07-31T08:54:50;17.40;99.90
19493;DHT22;9887;54.366;10.958;2023-07-31T08:57:18;17.40;99.90
19493;DHT22;9887;54.366;10.958;2023-07-31T08:59:47;17.40;99.90
19493;DHT22;9887;54.366;10.958;2023-07-31T09:02:15;17.40;99.90
19493;DHT22;9887;54.366;10.958;2023-07-31T09:04:45;17.40;99.90
19493;DHT22;9887;54.366;10.958;2023-07-31T09:07:14;17.40;99.90
19493;DHT22;9887;54.366;10.958;2023-07-31T09:09:45;17.40;99.90
19493;DHT22;9887;54.366;10.958;2023-07-31T09:12:13;17.50;99.90
19493;DHT22;9887;54.366;10.958;2023-07-31T09:14:42;17.50;99.90
19493;DHT22;9887;54.366;10.958;2023-07-31T09:17:11;17.50;99.90
19493;DHT22;9887;54.366;10.958;2023-07-31T09:19:39;17.60;99.90
19493;DHT22;9887;54.366;10.958;2023-07-31T09:22:07;17.60;99.90
19493;DHT22;9887;54.366;10.958;2023-07-31T09:24:35;17.60;99.90
19493;DHT22;9887;54.366;10.958;2023-07-31T09:27:06;17.60;99.90
19493;DHT22;9887;54.366;10.958;2023-07-31T09:29:33;17.50;99.90
19493;DHT22;9887;54.366;10.958;2023-07-31T09:32:01;17.50;99.90
19493;DHT22;9887;54.366;10.958;2023-07-31T09:34:36;17.50;99.90
19493;DHT22;9887;54.366;10.958;2023-07-31T09:37:05;17.50;99.90
19493;DHT22;9887;54.366;10.958;2023-07-31T09:39:45;17.60;99.90
19493;DHT22;9887;54.366;10.958;2023-07-31T09:42:24;17.70;99.90
19493;DHT22;9887;54.366;10.958;2023-07-31T09:44:52;17.70;99.90
19493;DHT22;9887;54.366;10.958;2023-07-31T09:47:23;17.70;99.90
19493;DHT22;9887;54.366;10.958;2023-07-31T09:49:52;17.70;99.90
19493;DHT22;9887;54.366;10.958;2023-07-31T09:52:20;17.70;99.90
19493;DHT22;9887;54.366;10.958;2023-07-31T09:54:48;17.70;99.90
19493;DHT22;9887;54.366;10.958;2023-07-31T09:57:18;17.70;99.90
19493;DHT22;9887;54.366;10.958;2023-07-31T09:59:49;17.60;99.90
19493;DHT22;9887;54.366;10.958;2023-07-31T10:02:21;17.60;99.90
19493;DHT22;9887;54.366;10.958;2023-07-31T10:04:50;17.60;99.90
19493;DHT22;9887;54.366;10.958;2023-07-31T10:07:20;17.60;99.90
19493;DHT22;9887;54.366;10.958;2023-07-31T10:09:51;17.60;99.90
19493;DHT22;9887;54.366;10.958;2023-07-31T10:12:23;17.60;99.90
19493;DHT22;9887;54.366;10.958;2023-07-31T10:14:54;17.50;99.90
19493;DHT22;9887;54.366;10.958;2023-07-31T10:17:26;17.40;99.90
19493;DHT22;9887;54.366;10.958;2023-07-31T10:19:54;17.20;99.90
19493;DHT22;9887;54.366;10.958;2023-07-31T10:22:24;17.20;99.90
19493;DHT22;9887;54.366;10.958;2023-07-31T10:24:52;17.20;99.90
19493;DHT22;9887;54.366;10.958;2023-07-31T10:27:23;17.20;99.90
19493;DHT22;9887;54.366;10.958;2023-07-31T10:29:52;17.10;99.90
19493;DHT22;9887;54.366;10.958;2023-07-31T10:32:22;17.00;99.90
19493;DHT22;9887;54.366;10.958;2023-07-31T10:34:51;16.90;99.90
19493;DHT22;9887;54.366;10.958;2023-07-31T10:37:21;16.80;99.90
19493;DHT22;9887;54.366;10.958;2023-07-31T10:39:59;16.80;99.90
19493;DHT22;9887;54.366;10.958;2023-07-31T10:42:31;16.70;99.90
19493;DHT22;9887;54.366;10.958;2023-07-31T10:45:02;16.70;99.90
19493;DHT22;9887;54.366;10.958;2023-07-31T10:47:30;16.70;99.90
19493;DHT22;9887;54.366;10.958;2023-07-31T10:50:16;16.80;99.90
19493;DHT22;9887;54.366;10.958;2023-07-31T10:52:49;16.80;99.90
19493;DHT22;9887;54.366;10.958;2023-07-31T10:55:31;16.80;99.90
19493;DHT22;9887;54.366;10.958;2023-07-31T10:58:07;16.90;99.90
19493;DHT22;9887;54.366;10.958;2023-07-31T11:00:37;17.10;99.90
19493;DHT22;9887;54.366;10.958;2023-07-31T11:03:06;17.10;99.90
19493;DHT22;9887;54.366;10.958;2023-07-31T11:05:49;17.00;99.90
19493;DHT22;9887;54.366;10.958;2023-07-31T11:08:21;17.10;99.90
19493;DHT22;9887;54.366;10.958;2023-07-31T11:10:51;17.20;99.90
19493;DHT22;9887;54.366;10.958;2023-07-31T11:13:21;17.30;99.90
19493;DHT22;9887;54.366;10.958;2023-07-31T11:15:49;17.40;99.90
19493;DHT22;9887;54.366;10.958;2023-07-31T11:18:18;17.40;99.90
19493;DHT22;9887;54.366;10.958;2023-07-31T11:20:46;17.40;99.90
19493;DHT22;9887;54.366;10.958;2023-07-31T11:23:18;17.40;99.90
19493;DHT22;9887;54.366;10.958;2023-07-31T11:25:46;17.40;99.90
19493;DHT22;9887;54.366;10.958;2023-07-31T11:28:15;17.60;99.90
19493;DHT22;9887;54.366;10.958;2023-07-31T11:30:45;17.70;99.90
19493;DHT22;9887;54.366;10.958;2023-07-31T11:33:14;17.70;99.90
19493;DHT22;9887;54.366;10.958;2023-07-31T11:35:43;17.80;99.90
19493;DHT22;9887;54.366;10.958;2023-07-31T11:38:14;17.80;99.90
19493;DHT22;9887;54.366;10.958;2023-07-31T11:40:48;18.00;99.90
19493;DHT22;9887;54.366;10.958;2023-07-31T11:43:17;18.00;99.90
19493;DHT22;9887;54.366;10.958;2023-07-31T11:45:48;18.10;99.90
19493;DHT22;9887;54.366;10.958;2023-07-31T11:48:20;18.10;99.90
19493;DHT22;9887;54.366;10.958;2023-07-31T11:50:49;18.20;99.90
19493;DHT22;9887;54.366;10.958;2023-07-31T11:53:21;18.30;99.90
19493;DHT22;9887;54.366;10.958;2023-07-31T11:55:52;18.30;99.90
19493;DHT22;9887;54.366;10.958;2023-07-31T11:58:22;18.20;99.90
19493;DHT22;9887;54.366;10.958;2023-07-31T12:00:52;18.30;99.90
19493;DHT22;9887;54.366;10.958;2023-07-31T12:03:20;18.40;99.90
19493;DHT22;9887;54.366;10.958;2023-07-31T12:05:48;18.40;99.90
19493;DHT22;9887;54.366;10.958;2023-07-31T12:08:20;18.40;99.90
19493;DHT22;9887;54.366;10.958;2023-07-31T12:10:50;18.50;99.90
19493;DHT22;9887;54.366;10.958;2023-07-31T12:13:21;18.50;99.90
19493;DHT22;9887;54.366;10.958;2023-07-31T12:15:54;18.50;99.90
19493;DHT22;9887;54.366;10.958;2023-07-31T12:18:26;18.50;99.90
19493;DHT22;9887;54.366;10.958;2023-07-31T12:20:55;18.50;99.90
19493;DHT22;9887;54.366;10.958;2023-07-31T12:23:25;18.40;99.90
19493;DHT22;9887;54.366;10.958;2023-07-31T12:26:01;18.30;99.90
19493;DHT22;9887;54.366;10.958;2023-07-31T12:28:29;18.30;99.90
19493;DHT22;9887;54.366;10.958;2023-07-31T12:31:00;18.30;99.90
19493;DHT22;9887;54.366;10.958;2023-07-31T12:33:31;18.30;99.90
19493;DHT22;9887;54.366;10.958;2023-07-31T12:36:01;18.30;99.90
19493;DHT22;9887;54.366;10.958;2023-07-31T12:38:30;18.30;99.90
19493;DHT22;9887;54.366;10.958;2023-07-31T12:40:58;18.40;99.90
19493;DHT22;9887;54.366;10.958;2023-07-31T12:43:26;18.40;99.90
19493;DHT22;9887;54.366;10.958;2023-07-31T12:45:54;18.30;99.90
19493;DHT22;9887;54.366;10.958;2023-07-31T12:48:24;18.20;99.90
19493;DHT22;9887;54.366;10.958;2023-07-31T12:50:52;18.00;99.90
19493;DHT22;9887;54.366;10.958;2023-07-31T12:53:20;17.90;99.90
19493;DHT22;9887;54.366;10.958;2023-07-31T12:55:47;17.80;99.90
19493;DHT22;9887;54.366;10.958;2023-07-31T12:58:15;17.70;99.90
19493;DHT22;9887;54.366;10.958;2023-07-31T13:00:43;17.80;99.90
19493;DHT22;9887;54.366;10.958;2023-07-31T13:03:11;17.80;99.90
19493;DHT22;9887;54.366;10.958;2023-07-31T13:05:40;17.80;99.90
19493;DHT22;9887;54.366;10.958;2023-07-31T13:08:08;17.80;99.90
19493;DHT22;9887;54.366;10.958;2023-07-31T13:10:36;17.80;99.90
19493;DHT22;9887;54.366;10.958;2023-07-31T13:13:04;17.80;99.90
19493;DHT22;9887;54.366;10.958;2023-07-31T13:15:32;17.80;99.90
19493;DHT22;9887;54.366;10.958;2023-07-31T13:18:00;17.90;99.90
19493;DHT22;9887;54.366;10.958;2023-07-31T13:20:28;17.90;99.90
19493;DHT22;9887;54.366;10.958;2023-07-31T13:22:57;18.00;99.90
19493;DHT22;9887;54.366;10.958;2023-07-31T13:25:25;18.00;99.90
19493;DHT22;9887;54.366;10.958;2023-07-31T13:27:53;18.10;99.90
19493;DHT22;9887;54.366;10.958;2023-07-31T13:30:21;18.00;99.90
19493;DHT22;9887;54.366;10.958;2023-07-31T13:32:49;18.10;99.90
19493;DHT22;9887;54.366;10.958;2023-07-31T13:35:17;18.10;99.90
19493;DHT22;9887;54.366;10.958;2023-07-31T13:37:44;18.00;99.90
19493;DHT22;9887;54.366;10.958;2023-07-31T13:40:14;18.00;99.90
19493;DHT22;9887;54.366;10.958;2023-07-31T13:42:42;17.90;99.90
19493;DHT22;9887;54.366;10.958;2023-07-31T13:45:10;17.60;99.90
19493;DHT22;9887;54.366;10.958;2023-07-31T13:47:37;17.60;99.90
19493;DHT22;9887;54.366;10.958;2023-07-31T13:50:06;17.50;99.90
19493;DHT22;9887;54.366;10.958;2023-07-31T13:52:34;17.40;99.90
19493;DHT22;9887;54.366;10.958;2023-07-31T13:55:02;17.20;99.90
19493;DHT22;9887;54.366;10.958;2023-07-31T13:57:31;17.10;99.90
19493;DHT22;9887;54.366;10.958;2023-07-31T13:59:59;17.10;99.90
19493;DHT22;9887;54.366;10.958;2023-07-31T14:02:30;17.20;99.90
19493;DHT22;9887;54.366;10.958;2023-07-31T14:04:58;17.30;99.90
19493;DHT22;9887;54.366;10.958;2023-07-31T14:07:26;17.30;99.90
19493;DHT22;9887;54.366;10.958;2023-07-31T14:09:54;17.40;99.90
19493;DHT22;9887;54.366;10.958;2023-07-31T14:12:22;17.50;99.90
19493;DHT22;9887;54.366;10.958;2023-07-31T14:15:10;17.70;99.90
19493;DHT22;9887;54.366;10.958;2023-07-31T14:17:38;17.80;99.90
19493;DHT22;9887;54.366;10.958;2023-07-31T14:20:08;17.90;99.90
19493;DHT22;9887;54.366;10.958;2023-07-31T14:22:37;18.00;99.90
19493;DHT22;9887;54.366;10.958;2023-07-31T14:25:05;18.10;99.90
19493;DHT22;9887;54.366;10.958;2023-07-31T14:27:33;18.20;99.90
19493;DHT22;9887;54.366;10.958;2023-07-31T14:30:01;18.20;99.90
19493;DHT22;9887;54.366;10.958;2023-07-31T14:32:30;18.10;99.90
19493;DHT22;9887;54.366;10.958;2023-07-31T14:34:58;18.00;99.90
19493;DHT22;9887;54.366;10.958;2023-07-31T14:37:26;17.90;99.90
19493;DHT22;9887;54.366;10.958;2023-07-31T14:40:04;17.80;99.90
19493;DHT22;9887;54.366;10.958;2023-07-31T14:42:32;17.80;99.90
19493;DHT22;9887;54.366;10.958;2023-07-31T14:45:00;17.80;99.90
19493;DHT22;9887;54.366;10.958;2023-07-31T14:47:28;17.80;99.90
19493;DHT22;9887;54.366;10.958;2023-07-31T14:49:59;17.80;99.90
19493;DHT22;9887;54.366;10.958;2023-07-31T14:52:27;17.90;99.90
19493;DHT22;9887;54.366;10.958;2023-07-31T14:54:55;17.90;99.90
19493;DHT22;9887;54.366;10.958;2023-07-31T14:57:23;17.70;99.90
19493;DHT22;9887;54.366;10.958;2023-07-31T14:59:53;17.60;99.90
19493;DHT22;9887;54.366;10.958;2023-07-31T15:02:21;17.40;99.90
19493;DHT22;9887;54.366;10.958;2023-07-31T15:04:49;17.60;99.90
19493;DHT22;9887;54.366;10.958;2023-07-31T15:07:18;17.70;99.90
19493;DHT22;9887;54.366;10.958;2023-07-31T15:09:46;17.80;99.90
19493;DHT22;9887;54.366;10.958;2023-07-31T15:12:14;17.80;99.90
19493;DHT22;9887;54.366;10.958;2023-07-31T15:14:42;17.70;99.90
19493;DHT22;9887;54.366;10.958;2023-07-31T15:17:10;17.60;99.90
19493;DHT22;9887;54.366;10.958;2023-07-31T15:19:38;17.60;99.90
19493;DHT22;9887;54.366;10.958;2023-07-31T15:22:06;17.60;99.90
19493;DHT22;9887;54.366;10.958;2023-07-31T15:24:36;17.40;99.90
19493;DHT22;9887;54.366;10.958;2023-07-31T15:27:07;17.20;99.90
19493;DHT22;9887;54.366;10.958;2023-07-31T15:29:35;17.30;99.90
19493;DHT22;9887;54.366;10.958;2023-07-31T15:32:04;17.20;99.90
19493;DHT22;9887;54.366;10.958;2023-07-31T15:34:33;17.20;99.90
19493;DHT22;9887;54.366;10.958;2023-07-31T15:37:01;17.20;99.90
19493;DHT22;9887;54.366;10.958;2023-07-31T15:39:29;17.30;99.90
19493;DHT22;9887;54.366;10.958;2023-07-31T15:41:58;17.40;99.90